(°C)
10°
11°
11°
(°C)
SSE
SSE
SSE
SSE
SSE
SE
S
(km/h)
7-12
7-10
6-9
7-12
7-15
9-18
13-23
(mm)
0
0
0
0
0
2
1.8
(%)
0
0
21
43
64
91
91

Elevação do sol

/ 3.4°
sun-icon
UV 2
03:57
20:58
Minguante côncava (338°)
03:16
18:47

METAR para 55.6°N 37.27°L (UUWW)

Hora Condições Temperatura/
Ponto de condensação
Vento Visibilidade Tempo Nuvens Pressão Mudança Bruto
VFR 6°C / 4°C 140º 6kt >10km - Clouds and Visibility OK 998 No Significant change UUWW 280100Z 14003MPS CAVOK 06/04 Q0998 R24/000070 NOSIG
VFR 6°C / 4°C 110º 4kt >10km - Clouds and Visibility OK 998 No Significant change UUWW 280030Z 11002MPS CAVOK 06/04 Q0998 R24/000070 NOSIG
VFR 6°C / 4°C 160º 4kt >10km - Clouds and Visibility OK 999 No Significant change UUWW 280000Z 16002MPS CAVOK 06/04 Q0999 R24/000070 NOSIG
VFR 6°C / 4°C 190º 2kt >10km - Clouds and Visibility OK 999 No Significant change UUWW 272330Z 19001MPS CAVOK 06/04 Q0999 R24/000070 NOSIG
VFR 6°C / 4°C 240º 4kt >10km - Clouds and Visibility OK 1000 No Significant change UUWW 272300Z 24002MPS CAVOK 06/04 Q1000 R24/000070 NOSIG
VFR 7°C / 4°C 200º 6kt >10km - Clouds and Visibility OK 1000 No Significant change UUWW 272230Z 20003MPS CAVOK 07/04 Q1000 R24/000070 NOSIG
VFR 6°C / 4°C 210º 4kt >10km - Clouds and Visibility OK 1000 No Significant change. Runway 24: Wet or puddles, 51-100% contamination with <1mm, friction coefficient 0.50. UUWW 272200Z 21002MPS CAVOK 06/04 Q1000 R24/290050 NOSIG
VFR 7°C / 4°C 210º 4kt >10km - Clouds and Visibility OK 1000 No Significant change. Runway 24: Wet or puddles, 51-100% contamination with <1mm, friction coefficient 0.50. UUWW 272130Z 21002MPS CAVOK 07/04 Q1000 R24/290050 NOSIG
VFR 8°C / 5°C 220º 4kt >10km - Clouds and Visibility OK 1000 No Significant change. Runway 24: Wet or puddles, 51-100% contamination with <1mm, friction coefficient 0.50. UUWW 272100Z 22002MPS CAVOK 08/05 Q1000 R24/290050 NOSIG
VFR 8°C / 5°C 230º 6kt >10km - Clouds and Visibility OK 1001 No Significant change. Runway 24: Wet or puddles, 51-100% contamination with <1mm, friction coefficient 0.50. UUWW 272030Z 23003MPS CAVOK 08/05 Q1001 R24/290050 NOSIG
VFR 8°C / 5°C 210º 6kt >10km - Clouds and Visibility OK 1001 No Significant change. Runway 24: Wet or puddles, 51-100% contamination with <1mm, friction coefficient 0.50. UUWW 272000Z 21003MPS CAVOK 08/05 Q1001 R24/290050 NOSIG
VFR 8°C / 5°C 210º 8kt >10km - Clouds and Visibility OK 1001 No Significant change. Runway 24: Wet or puddles, 51-100% contamination with <1mm, friction coefficient 0.50. UUWW 271930Z 21004MPS CAVOK 08/05 Q1001 R24/290050 NOSIG
VFR 8°C / 5°C 220º 6kt >10km - Clouds and Visibility OK 1001 No Significant change. Runway 24: Wet or puddles, 51-100% contamination with <1mm, friction coefficient 0.50. UUWW 271900Z 22003MPS CAVOK 08/05 Q1001 R24/290050 NOSIG
VFR 9°C / 6°C 230º 4kt >10km - Clouds and Visibility OK 1001 No Significant change. Runway 24: Wet or puddles, 51-100% contamination with <1mm, friction coefficient 0.50. UUWW 271830Z 23002MPS CAVOK 09/06 Q1001 R24/290050 NOSIG
VFR 10°C / 6°C 240º 8kt >10km - Clouds and Visibility OK 1001 No Significant change. Runway 24: Wet or puddles, 51-100% contamination with <1mm, friction coefficient 0.50. UUWW 271800Z 24004MPS CAVOK 10/06 Q1001 R24/290050 NOSIG
VFR 11°C / 5°C 260º 14kt Gust 23kt >10km - Clouds and Visibility OK 1001 No Significant change. Runway 24: Wet or puddles, 51-100% contamination with <1mm, friction coefficient 0.50. UUWW 271730Z 26007G12MPS CAVOK 11/05 Q1001 R24/290050 NOSIG
VFR 12°C / 6°C 250º 14kt Gust 23kt >10km - Few Clouds 3300ft 1000 No Significant change. Runway 24: Damp, 26-50% contamination with <1mm, friction coefficient 0.60. UUWW 271700Z 25007G12MPS 9999 FEW033CB 12/06 Q1000 R24/150060 NOSIG
MVFR 12°C / 7°C 240º 14kt Gust 23kt >10km - Broken Clouds 2600ft 1001 No Significant change. Runway 24: Damp, 26-50% contamination with <1mm, friction coefficient 0.60. UUWW 271630Z 24007G12MPS 9999 BKN026CB 12/07 Q1001 R24/150060 NOSIG
VFR 12°C / 7°C 270º 10kt >10km - Broken Clouds 3900ft 1000 No Significant change. Runway 24: Damp, 26-50% contamination with <1mm, friction coefficient 0.60. UUWW 271600Z 27005MPS 9999 BKN039CB 12/07 Q1000 R24/150060 NOSIG
VFR 11°C / 6°C 260º 14kt >10km - Broken Clouds 3200ft 1000 No Significant change. Runway 24: Damp, 26-50% contamination with <1mm, friction coefficient 0.60. UUWW 271530Z 26007MPS 9999 BKN032CB 11/06 Q1000 R24/150060 NOSIG
VFR 11°C / 6°C 240º 14kt >10km Light Showers Rain 3.00mm precipitation Vertical Visibility of 0ft. 1000 No Significant change. Runway 24: Damp, 26-50% contamination with <1mm, friction coefficient 0.60. UUWW 271500Z 24007MPS 9999 -SHRA BKN032CB 11/06 Q1000 R24/150060 NOSIG
MVFR 13°C / 6°C 250º 19kt >10km - Broken Clouds 2500ft 999 No Significant change. Runway 24: Damp, 26-50% contamination with <1mm, friction coefficient 0.60. UUWW 271430Z 25010MPS 9999 BKN025CB 13/06 Q0999 R24/150060 NOSIG
VFR 14°C / 8°C 260º 8kt >10km - Few Clouds 3400ft 999 No Significant change. Runway 19: Wet or puddles, 51-100% contamination with <1mm, friction coefficient 0.50. UUWW 271400Z 26004MPS 9999 FEW034CB 14/08 Q0999 R19/290050 NOSIG
VFR 13°C / 7°C 250º 12kt >10km - Few Clouds 5000ft 999 No Significant change. Runway 19: Wet or puddles, 51-100% contamination with <1mm, friction coefficient 0.50. UUWW 271330Z 25006MPS 9999 FEW050CB 13/07 Q0999 R19/290050 NOSIG

VFR

6°C / 4°C

[Mais]
Vento 140º 6kt
Visibilidade >10km
Tempo -
Nuvens Clouds and Visibility OK
Pressão 998
Mudança No Significant change
Bruto UUWW 280100Z 14003MPS CAVOK 06/04 Q0998 R24/000070 NOSIG

VFR

6°C / 4°C

[Mais]
Vento 110º 4kt
Visibilidade >10km
Tempo -
Nuvens Clouds and Visibility OK
Pressão 998
Mudança No Significant change
Bruto UUWW 280030Z 11002MPS CAVOK 06/04 Q0998 R24/000070 NOSIG

VFR

6°C / 4°C

[Mais]
Vento 160º 4kt
Visibilidade >10km
Tempo -
Nuvens Clouds and Visibility OK
Pressão 999
Mudança No Significant change
Bruto UUWW 280000Z 16002MPS CAVOK 06/04 Q0999 R24/000070 NOSIG

VFR

6°C / 4°C

[Mais]
Vento 190º 2kt
Visibilidade >10km
Tempo -
Nuvens Clouds and Visibility OK
Pressão 999
Mudança No Significant change
Bruto UUWW 272330Z 19001MPS CAVOK 06/04 Q0999 R24/000070 NOSIG

VFR

6°C / 4°C

[Mais]
Vento 240º 4kt
Visibilidade >10km
Tempo -
Nuvens Clouds and Visibility OK
Pressão 1000
Mudança No Significant change
Bruto UUWW 272300Z 24002MPS CAVOK 06/04 Q1000 R24/000070 NOSIG

VFR

7°C / 4°C

[Mais]
Vento 200º 6kt
Visibilidade >10km
Tempo -
Nuvens Clouds and Visibility OK
Pressão 1000
Mudança No Significant change
Bruto UUWW 272230Z 20003MPS CAVOK 07/04 Q1000 R24/000070 NOSIG

VFR

6°C / 4°C

[Mais]
Vento 210º 4kt
Visibilidade >10km
Tempo -
Nuvens Clouds and Visibility OK
Pressão 1000
Mudança No Significant change. Runway 24: Wet or puddles, 51-100% contamination with <1mm, friction coefficient 0.50.
Bruto UUWW 272200Z 21002MPS CAVOK 06/04 Q1000 R24/290050 NOSIG

VFR

7°C / 4°C

[Mais]
Vento 210º 4kt
Visibilidade >10km
Tempo -
Nuvens Clouds and Visibility OK
Pressão 1000
Mudança No Significant change. Runway 24: Wet or puddles, 51-100% contamination with <1mm, friction coefficient 0.50.
Bruto UUWW 272130Z 21002MPS CAVOK 07/04 Q1000 R24/290050 NOSIG

VFR

8°C / 5°C

[Mais]
Vento 220º 4kt
Visibilidade >10km
Tempo -
Nuvens Clouds and Visibility OK
Pressão 1000
Mudança No Significant change. Runway 24: Wet or puddles, 51-100% contamination with <1mm, friction coefficient 0.50.
Bruto UUWW 272100Z 22002MPS CAVOK 08/05 Q1000 R24/290050 NOSIG

VFR

8°C / 5°C

[Mais]
Vento 230º 6kt
Visibilidade >10km
Tempo -
Nuvens Clouds and Visibility OK
Pressão 1001
Mudança No Significant change. Runway 24: Wet or puddles, 51-100% contamination with <1mm, friction coefficient 0.50.
Bruto UUWW 272030Z 23003MPS CAVOK 08/05 Q1001 R24/290050 NOSIG

VFR

8°C / 5°C

[Mais]
Vento 210º 6kt
Visibilidade >10km
Tempo -
Nuvens Clouds and Visibility OK
Pressão 1001
Mudança No Significant change. Runway 24: Wet or puddles, 51-100% contamination with <1mm, friction coefficient 0.50.
Bruto UUWW 272000Z 21003MPS CAVOK 08/05 Q1001 R24/290050 NOSIG

VFR

8°C / 5°C

[Mais]
Vento 210º 8kt
Visibilidade >10km
Tempo -
Nuvens Clouds and Visibility OK
Pressão 1001
Mudança No Significant change. Runway 24: Wet or puddles, 51-100% contamination with <1mm, friction coefficient 0.50.
Bruto UUWW 271930Z 21004MPS CAVOK 08/05 Q1001 R24/290050 NOSIG

VFR

8°C / 5°C

[Mais]
Vento 220º 6kt
Visibilidade >10km
Tempo -
Nuvens Clouds and Visibility OK
Pressão 1001
Mudança No Significant change. Runway 24: Wet or puddles, 51-100% contamination with <1mm, friction coefficient 0.50.
Bruto UUWW 271900Z 22003MPS CAVOK 08/05 Q1001 R24/290050 NOSIG

VFR

9°C / 6°C

[Mais]
Vento 230º 4kt
Visibilidade >10km
Tempo -
Nuvens Clouds and Visibility OK
Pressão 1001
Mudança No Significant change. Runway 24: Wet or puddles, 51-100% contamination with <1mm, friction coefficient 0.50.
Bruto UUWW 271830Z 23002MPS CAVOK 09/06 Q1001 R24/290050 NOSIG

VFR

10°C / 6°C

[Mais]
Vento 240º 8kt
Visibilidade >10km
Tempo -
Nuvens Clouds and Visibility OK
Pressão 1001
Mudança No Significant change. Runway 24: Wet or puddles, 51-100% contamination with <1mm, friction coefficient 0.50.
Bruto UUWW 271800Z 24004MPS CAVOK 10/06 Q1001 R24/290050 NOSIG

VFR

11°C / 5°C

[Mais]
Vento 260º 14kt Gust 23kt
Visibilidade >10km
Tempo -
Nuvens Clouds and Visibility OK
Pressão 1001
Mudança No Significant change. Runway 24: Wet or puddles, 51-100% contamination with <1mm, friction coefficient 0.50.
Bruto UUWW 271730Z 26007G12MPS CAVOK 11/05 Q1001 R24/290050 NOSIG

VFR

12°C / 6°C

[Mais]
Vento 250º 14kt Gust 23kt
Visibilidade >10km
Tempo -
Nuvens Few Clouds 3300ft
Pressão 1000
Mudança No Significant change. Runway 24: Damp, 26-50% contamination with <1mm, friction coefficient 0.60.
Bruto UUWW 271700Z 25007G12MPS 9999 FEW033CB 12/06 Q1000 R24/150060 NOSIG

MVFR

12°C / 7°C

[Mais]
Vento 240º 14kt Gust 23kt
Visibilidade >10km
Tempo -
Nuvens Broken Clouds 2600ft
Pressão 1001
Mudança No Significant change. Runway 24: Damp, 26-50% contamination with <1mm, friction coefficient 0.60.
Bruto UUWW 271630Z 24007G12MPS 9999 BKN026CB 12/07 Q1001 R24/150060 NOSIG

VFR

12°C / 7°C

[Mais]
Vento 270º 10kt
Visibilidade >10km
Tempo -
Nuvens Broken Clouds 3900ft
Pressão 1000
Mudança No Significant change. Runway 24: Damp, 26-50% contamination with <1mm, friction coefficient 0.60.
Bruto UUWW 271600Z 27005MPS 9999 BKN039CB 12/07 Q1000 R24/150060 NOSIG

VFR

11°C / 6°C

[Mais]
Vento 260º 14kt
Visibilidade >10km
Tempo -
Nuvens Broken Clouds 3200ft
Pressão 1000
Mudança No Significant change. Runway 24: Damp, 26-50% contamination with <1mm, friction coefficient 0.60.
Bruto UUWW 271530Z 26007MPS 9999 BKN032CB 11/06 Q1000 R24/150060 NOSIG

VFR

11°C / 6°C

[Mais]
Vento 240º 14kt
Visibilidade >10km
Tempo Light Showers Rain 3.00mm precipitation
Nuvens Vertical Visibility of 0ft.
Pressão 1000
Mudança No Significant change. Runway 24: Damp, 26-50% contamination with <1mm, friction coefficient 0.60.
Bruto UUWW 271500Z 24007MPS 9999 -SHRA BKN032CB 11/06 Q1000 R24/150060 NOSIG

MVFR

13°C / 6°C

[Mais]
Vento 250º 19kt
Visibilidade >10km
Tempo -
Nuvens Broken Clouds 2500ft
Pressão 999
Mudança No Significant change. Runway 24: Damp, 26-50% contamination with <1mm, friction coefficient 0.60.
Bruto UUWW 271430Z 25010MPS 9999 BKN025CB 13/06 Q0999 R24/150060 NOSIG

VFR

14°C / 8°C

[Mais]
Vento 260º 8kt
Visibilidade >10km
Tempo -
Nuvens Few Clouds 3400ft
Pressão 999
Mudança No Significant change. Runway 19: Wet or puddles, 51-100% contamination with <1mm, friction coefficient 0.50.
Bruto UUWW 271400Z 26004MPS 9999 FEW034CB 14/08 Q0999 R19/290050 NOSIG

VFR

13°C / 7°C

[Mais]
Vento 250º 12kt
Visibilidade >10km
Tempo -
Nuvens Few Clouds 5000ft
Pressão 999
Mudança No Significant change. Runway 19: Wet or puddles, 51-100% contamination with <1mm, friction coefficient 0.50.
Bruto UUWW 271330Z 25006MPS 9999 FEW050CB 13/07 Q0999 R19/290050 NOSIG

TAF para 55.6°N 37.27°L (UUWW)

From till


Maximum Temperature 14ºC on . Minimum Temperature 5ºC on .
From till Wind 190º 6kt. Visibility 10km or more. Broken Clouds 1600ft.
With 40% probability, Temporarly from till Visibility 305.775m. Fog . Few Clouds 200ft.
Temporarly from till Light Showers Rain . Few Clouds 400ft. Broken Clouds 1500ft.
With 40% probability, Temporarly from till Light Thunderstorm Rain . Broken Clouds 1200ft.
Becoming from till Wind 260º 16kt. Gust 29kt. Visibility 10km or more. Broken Clouds 1600ft.
Becoming from till Wind 240º 10kt. Visibility 10km or more. Broken Clouds 1600ft.

Bruto: TAF UUWW 272259Z 2800/2824 19003MPS 9999 BKN016 TX14/2813Z TN05/2800Z PROB40 TEMPO 2800/2802 0300 FG FEW002 TEMPO 2803/2815 -SHRA FEW004 BKN015CB BECMG 2806/2808 26008G15MPS PROB40 TEMPO 2806/2815 -TSRA BKN012CB BECMG 2817/2819 24005MPS

Radar e precipitação nowcast para 55.6°N 37.27°L

Chuvisco
Leve
Moderado
Forte
Muito forte
Granizo

O marcador do lugar é colocado em 55.6°N 37.27°L. Esta animação mostra o radar de precipitação para a última hora, assim como a 1h previsão. A queda de neve pode ser invisível para o radar. A intensidade da precipitação é codificada por cores, variando do azul claro ao laranja.

Imagens atuais de satélite e precipitação para 55.6°N 37.27°L

O marcador de lugar é colocado em 55.6°N 37.27°L. [Mais]

A imagem de satélite em tempo real combina luz visível durante o dia com radiação infravermelha durante a noite. À noite, a imagem não é escura, pois a radiação infravermelha pode detectar diferenças de temperatura. Infelizmente, nuvens baixas e neblina são difíceis de distinguir das temperaturas do solo e, portanto, podem ser quase invisíveis durante a noite. As imagens de satélite Meteosat para a Europa são atualizadas em tempo real a cada 5 minutos. GOES-16/GOES-17 ( América do Norte e do Sul) e Himawari (Ásia) são atualizadas a cada 10 minutos.

Copyright 2022 EUMETSAT / meteoblue. / Copyright 2022 meteoblue

Voltar ao início